EDDEEDDC

Guest
Details From EDDE - Erfurt
To EDDC - Dresden
Flight Number -
Tags generated
Created
Modified
Stats Distance 106 nm / 197 km
Max Altitude 3,200 ft / 975 m
Waypoints 3
Social Downloads 3
Likes 0
Share VATSIM

Download

Looking for another format? Having issues loading an existing format? Contact us
Advertisement - Login to hide

Notes

Basic altitude profile: - Ascent Rate: 2500ft/min - Ascent Speed: 250kts - Cruise Altitude: 35000ft - Cruise Speed: 420kts - Descent Rate: 1500ft/min - Descent Speed: 250kts Options: - Use NATs: yes - Use PACOTS: yes - Use low airways: yes - Use high airways: yes

Route

EDDE RIVSA EDDC

ID Type Via Altitude Latitude Longitude Leg Dist Tot Dist Heading (true) Name
O EDDE APT - 0 ft / 0 m 50.97981˚ 10.95810˚ - 0 nm - Erfurt
RIVSA FIX - 3,200 ft / 975 m 51.10861˚ 13.36667˚ 91 nm 91 nm 84° / 86° -
O EDDC APT - 0 ft / 0 m 51.13437˚ 13.76806˚ 15 nm 106 nm 84° / 84° Dresden

Altitude Profile

Advertisement - Login to hide

EDDE

Details ICAO EDDE (ERF)
Name Erfurt
Region Germany - Civil
Timezone Europe/Berlin (UTC+1.0)
Stats Elevation 1,035 ft / 315 m (AMSL)
Location 50.979808° 10.958105°
Runways 1
Magnetic Variation 3.025° E

METAR

EDDE 152120Z 21003KT 9999 BKN021 BKN032 01/01 Q0999 R88/190095

Decode

TAF

TAF EDDE 151700Z 1518/1618 VRB03KT 9999 BKN030 PROB30 TEMPO 1518/1524 4000 -RASN BKN012 BECMG 1608/1611 27007KT PROB30 TEMPO 1608/1618 4000 -SHSN BKN012TCU

Decode

Departure Runways

ID Width Length Bearing (true) Bearing (mag) Surface Threshold Offset Overrun Length
10 164 ft / 50 m 8,523 ft / 2,598 m 98.24° 95.21° Asphalt 0 ft / 0 m 0 ft / 0 m
28 164 ft / 50 m 8,523 ft / 2,598 m 278.27° 275.24° Asphalt 656 ft / 200 m 0 ft / 0 m

EDDC

Details ICAO EDDC (DRS)
Name Dresden
Region Germany - Civil
Timezone Europe/Berlin (UTC+1.0)
Stats Elevation 752 ft / 229 m (AMSL)
Location 51.134366° 13.768065°
Runways 1
Magnetic Variation 3.800° E

METAR

EDDC 152120Z 13003KT CAVOK M00/M02 Q1000 R04/29//95

Decode

TAF

TAF EDDC 151700Z 1518/1618 22004KT 9999 BKN025 PROB30 TEMPO 1521/1601 3000 -SN BKN010 TEMPO 1601/1608 4000 BR BKN010 TEMPO 1614/1618 2500 -SHSN BKN008 BKN015CB

Decode

Destination Runways

ID Width Length Bearing (true) Bearing (mag) Surface Threshold Offset Overrun Length
04 197 ft / 60 m 9,348 ft / 2,849 m 40.74° 36.94° Concrete 0 ft / 0 m 0 ft / 0 m
22 197 ft / 60 m 9,348 ft / 2,849 m 220.76° 216.96° Concrete 984 ft / 300 m 0 ft / 0 m

Approach Navaids

Runway Type Ident Frequency Range Bearing (true) Bearing (mag) Slope Elevation
04 Localiser IDRE 110.50 MHz 18 nm / 33 km 40.83° 37.03° - 703 ft / 214 m (AMSL)
04 Glidescope IDRE 110.50 MHz 10 nm / 19 km 40.83° 37.03° 3.00° 755 ft / 230 m (AMSL)
22 Localiser IDRW 109.70 MHz 18 nm / 33 km 220.81° 217.01° - 755 ft / 230 m (AMSL)
22 Glidescope IDRW 109.70 MHz 10 nm / 19 km 220.81° 217.01° 3.00° 703 ft / 214 m (AMSL)

Popular Alternatives